createdAt,value
2023-01-25T00:00:30.930Z,55.90
2023-01-25T00:02:57.705Z,56.00
2023-01-25T00:05:24.724Z,56.00
2023-01-25T00:07:51.345Z,56.00
2023-01-25T00:10:18.326Z,56.00
2023-01-25T00:12:44.962Z,56.00
2023-01-25T00:15:12.017Z,55.90
2023-01-25T00:17:38.673Z,55.50
2023-01-25T00:20:05.905Z,56.00
2023-01-25T00:22:32.535Z,55.90
2023-01-25T00:24:59.148Z,55.90
2023-01-25T00:27:25.943Z,56.00
2023-01-25T00:29:52.547Z,56.00
2023-01-25T00:32:22.059Z,56.00
2023-01-25T00:34:52.205Z,56.10
2023-01-25T00:37:37.516Z,55.50
2023-01-25T00:40:04.913Z,56.00
2023-01-25T00:42:31.557Z,56.00
2023-01-25T00:44:58.180Z,56.00
2023-01-25T00:47:24.821Z,55.50
2023-01-25T00:49:51.493Z,55.90
2023-01-25T00:52:18.277Z,56.00
2023-01-25T00:54:44.927Z,56.00
2023-01-25T00:57:11.579Z,56.00
2023-01-25T00:59:38.236Z,55.90
2023-01-25T01:02:05.190Z,56.00
2023-01-25T01:04:32.173Z,55.90
2023-01-25T01:06:58.905Z,55.90
2023-01-25T01:09:25.672Z,55.90
2023-01-25T01:11:52.701Z,55.90
2023-01-25T01:14:19.937Z,56.00
2023-01-25T01:16:47.098Z,55.40
2023-01-25T01:19:14.101Z,55.90
2023-01-25T01:21:40.899Z,55.90
2023-01-25T01:24:09.708Z,55.90
2023-01-25T01:26:36.557Z,55.90
2023-01-25T01:29:03.233Z,55.90
2023-01-25T01:31:30.163Z,55.90
2023-01-25T01:33:58.344Z,55.90
2023-01-25T01:36:27.484Z,55.40
2023-01-25T01:38:54.568Z,55.40
2023-01-25T01:41:23.921Z,55.90
2023-01-25T01:43:52.941Z,55.90
2023-01-25T01:46:37.824Z,55.90
2023-01-25T01:49:22.247Z,55.90
2023-01-25T01:52:03.183Z,55.80
2023-01-25T01:54:43.526Z,55.90
2023-01-25T01:57:14.770Z,55.50
2023-01-25T01:59:46.354Z,56.00
2023-01-25T02:02:14.289Z,56.00
2023-01-25T02:04:43.871Z,55.90
2023-01-25T02:07:29.931Z,56.00
2023-01-25T02:09:56.652Z,55.90
2023-01-25T02:12:23.982Z,56.00
2023-01-25T02:14:52.728Z,56.00
2023-01-25T02:17:34.992Z,55.90
2023-01-25T02:20:19.117Z,56.00
2023-01-25T02:22:56.043Z,56.00
2023-01-25T02:25:22.667Z,55.90
2023-01-25T02:28:02.054Z,55.90
2023-01-25T02:30:28.832Z,55.90
2023-01-25T02:32:55.514Z,56.00
2023-01-25T02:35:25.580Z,55.90
2023-01-25T02:37:52.311Z,55.40
2023-01-25T02:40:19.145Z,56.00
2023-01-25T02:42:46.315Z,56.00
2023-01-25T02:45:16.360Z,56.00
2023-01-25T02:47:42.937Z,55.90
2023-01-25T02:50:10.377Z,56.00
2023-01-25T02:52:37.091Z,56.00
2023-01-25T02:55:03.886Z,56.00
2023-01-25T02:57:30.481Z,55.50
2023-01-25T02:59:57.103Z,56.00
2023-01-25T03:02:23.867Z,56.00
2023-01-25T03:04:51.224Z,56.00
2023-01-25T03:07:18.023Z,56.00
2023-01-25T03:09:44.644Z,56.00
2023-01-25T03:12:11.336Z,56.00
2023-01-25T03:14:38.052Z,56.00
2023-01-25T03:17:04.978Z,56.00
2023-01-25T03:19:31.860Z,56.00
2023-01-25T03:21:58.984Z,56.00
2023-01-25T03:24:25.793Z,56.00
2023-01-25T03:27:10.644Z,55.90
2023-01-25T03:29:38.095Z,56.00
2023-01-25T03:32:05.175Z,55.90
2023-01-25T03:34:31.879Z,55.80
2023-01-25T03:36:58.607Z,56.20
2023-01-25T03:39:25.533Z,55.90
2023-01-25T03:41:52.260Z,55.90
2023-01-25T03:44:18.866Z,55.80
2023-01-25T03:46:45.920Z,55.90
2023-01-25T03:49:12.833Z,55.80
2023-01-25T03:51:39.498Z,55.80
2023-01-25T03:54:08.187Z,55.80
2023-01-25T03:56:34.808Z,55.80
2023-01-25T03:59:01.427Z,55.80
2023-01-25T04:01:28.042Z,55.80
2023-01-25T04:03:54.636Z,55.80
2023-01-25T04:06:21.299Z,55.30
2023-01-25T04:08:47.909Z,55.80
2023-01-25T04:11:14.539Z,55.80
2023-01-25T04:13:41.118Z,55.80
2023-01-25T04:16:09.629Z,55.80
2023-01-25T04:18:36.240Z,55.80
2023-01-25T04:21:02.932Z,55.90
2023-01-25T04:23:29.575Z,55.80
2023-01-25T04:26:01.330Z,56.50
2023-01-25T04:28:28.413Z,55.40
2023-01-25T04:30:56.333Z,55.90
2023-01-25T04:33:23.075Z,55.80
2023-01-25T04:35:49.968Z,55.80
2023-01-25T04:38:16.959Z,56.40
2023-01-25T04:40:44.699Z,56.50
2023-01-25T04:43:13.768Z,55.80
2023-01-25T04:45:43.002Z,55.80
2023-01-25T04:48:11.469Z,55.30
2023-01-25T04:50:39.155Z,55.80
2023-01-25T04:53:06.958Z,55.80
2023-01-25T04:55:34.177Z,55.80
2023-01-25T04:58:01.628Z,55.30
2023-01-25T05:00:29.472Z,55.80
2023-01-25T05:02:56.181Z,55.80
2023-01-25T05:05:22.874Z,55.80
2023-01-25T05:07:49.572Z,55.70
2023-01-25T05:10:16.302Z,55.80
2023-01-25T05:12:43.510Z,55.70
2023-01-25T05:15:10.958Z,55.70
2023-01-25T05:17:37.862Z,55.80
2023-01-25T05:20:04.754Z,55.80
2023-01-25T05:22:31.499Z,55.80
2023-01-25T05:24:59.099Z,55.90
2023-01-25T05:27:25.785Z,55.90
2023-01-25T05:29:52.386Z,55.90
2023-01-25T05:32:21.541Z,55.90
2023-01-25T05:34:48.807Z,55.90
2023-01-25T05:37:20.682Z,56.00
2023-01-25T05:39:47.544Z,56.60
2023-01-25T05:42:17.223Z,56.00
2023-01-25T05:44:46.294Z,56.00
2023-01-25T05:47:15.930Z,56.00
2023-01-25T05:49:42.859Z,55.90
2023-01-25T05:52:14.581Z,55.90
2023-01-25T05:54:41.387Z,55.90
2023-01-25T05:57:08.077Z,55.90
2023-01-25T05:59:34.789Z,55.90
2023-01-25T06:02:01.408Z,55.80
2023-01-25T06:04:28.193Z,55.90
2023-01-25T06:06:54.798Z,55.90
2023-01-25T06:09:22.289Z,55.90
2023-01-25T06:11:49.350Z,55.90
2023-01-25T06:14:16.117Z,55.80
2023-01-25T06:16:42.746Z,55.80
2023-01-25T06:19:09.398Z,55.40
2023-01-25T06:21:39.253Z,55.90
2023-01-25T06:24:06.201Z,56.00
2023-01-25T06:26:33.203Z,55.90
2023-01-25T06:28:59.894Z,55.90
2023-01-25T06:31:26.647Z,55.90
2023-01-25T06:33:53.624Z,56.00
2023-01-25T06:36:21.992Z,55.90
2023-01-25T06:38:53.095Z,56.00
2023-01-25T06:41:20.447Z,55.90
2023-01-25T06:43:49.752Z,56.60
2023-01-25T06:46:16.419Z,55.90
2023-01-25T06:48:43.180Z,55.90
2023-01-25T06:51:12.530Z,55.90
2023-01-25T06:53:42.269Z,55.90
2023-01-25T06:56:12.104Z,55.90
2023-01-25T06:58:39.785Z,55.90
2023-01-25T07:01:15.485Z,55.90
2023-01-25T07:03:42.682Z,56.00
2023-01-25T07:06:11.257Z,56.00
2023-01-25T07:08:39.263Z,56.00
2023-01-25T07:11:11.996Z,56.00
2023-01-25T07:13:39.403Z,56.00
2023-01-25T07:16:08.349Z,56.00
2023-01-25T07:18:38.050Z,56.00
2023-01-25T07:21:11.476Z,56.20
2023-01-25T07:23:38.705Z,56.00
2023-01-25T07:26:06.653Z,55.60
2023-01-25T07:28:33.732Z,56.10
2023-01-25T07:31:07.594Z,56.00
2023-01-25T07:33:35.133Z,56.10
2023-01-25T07:36:07.380Z,56.10
2023-01-25T07:38:34.664Z,55.50
2023-01-25T07:41:01.390Z,56.00
2023-01-25T07:43:29.151Z,56.00
2023-01-25T07:46:01.797Z,56.30
2023-01-25T07:48:28.502Z,56.10
2023-01-25T07:51:22.367Z,56.00
2023-01-25T07:53:51.195Z,56.10
2023-01-25T07:56:19.391Z,56.10
2023-01-25T07:58:46.816Z,55.90
2023-01-25T08:01:16.789Z,56.00
2023-01-25T08:03:44.401Z,56.10
2023-01-25T08:06:11.926Z,56.10
2023-01-25T08:08:44.212Z,56.10
2023-01-25T08:11:10.778Z,56.00
2023-01-25T08:13:37.442Z,56.00
2023-01-25T08:16:04.259Z,56.00
2023-01-25T08:18:30.905Z,55.50
2023-01-25T08:21:00.697Z,56.10
2023-01-25T08:23:28.620Z,56.00
2023-01-25T08:25:56.481Z,56.00
2023-01-25T08:28:23.434Z,55.90
2023-01-25T08:30:57.343Z,55.90
2023-01-25T08:33:24.214Z,55.90
2023-01-25T08:35:56.513Z,55.90
2023-01-25T08:38:23.573Z,55.80
2023-01-25T08:40:50.195Z,55.90
2023-01-25T08:43:16.877Z,55.90
2023-01-25T08:45:43.495Z,55.90
2023-01-25T08:48:12.894Z,55.90
2023-01-25T08:50:39.502Z,55.90
2023-01-25T08:53:06.106Z,55.80
2023-01-25T08:55:35.790Z,55.90
2023-01-25T08:58:02.375Z,55.80
2023-01-25T09:00:28.983Z,55.80
2023-01-25T09:02:55.736Z,55.90
2023-01-25T09:05:22.325Z,55.80
2023-01-25T09:07:48.930Z,55.90
2023-01-25T09:10:15.758Z,55.90
2023-01-25T09:12:42.345Z,55.80
2023-01-25T09:15:09.459Z,55.80
2023-01-25T09:17:38.891Z,55.80
2023-01-25T09:22:36.461Z,55.40
2023-01-25T09:25:03.941Z,55.90
2023-01-25T09:27:30.542Z,55.90
2023-01-25T09:30:01.693Z,56.00
2023-01-25T09:32:29.145Z,56.00
2023-01-25T09:34:55.957Z,55.90
2023-01-25T09:37:22.561Z,55.40
2023-01-25T09:39:49.153Z,56.10
2023-01-25T09:42:54.209Z,56.00
2023-01-25T09:45:24.247Z,56.10
2023-01-25T09:48:00.396Z,56.00
2023-01-25T09:50:55.953Z,56.10
2023-01-25T09:53:36.835Z,56.10
2023-01-25T09:56:12.382Z,56.10
2023-01-25T09:58:45.097Z,56.10
2023-01-25T10:01:50.819Z,56.10
2023-01-25T10:04:24.515Z,56.10
2023-01-25T10:07:01.505Z,56.10
2023-01-25T10:09:45.237Z,56.10
2023-01-25T10:12:20.462Z,56.10
2023-01-25T10:14:47.532Z,56.10
2023-01-25T10:17:37.206Z,56.10
2023-01-25T10:20:20.109Z,56.20
2023-01-25T10:22:52.603Z,56.10
2023-01-25T10:25:33.890Z,56.20
2023-01-25T10:28:22.917Z,56.20
2023-01-25T10:31:01.246Z,56.20
2023-01-25T10:33:31.151Z,56.20
2023-01-25T10:36:01.575Z,56.10
2023-01-25T10:38:37.861Z,56.20
2023-01-25T10:41:16.595Z,56.20
2023-01-25T10:43:43.196Z,56.20
2023-01-25T10:46:23.496Z,56.20
2023-01-25T10:48:50.261Z,56.20
2023-01-25T10:51:30.943Z,56.10
2023-01-25T10:54:06.036Z,55.60
2023-01-25T10:56:35.184Z,56.20
2023-01-25T10:59:17.246Z,56.10
2023-01-25T11:01:43.928Z,56.20
2023-01-25T11:04:31.206Z,56.10
2023-01-25T11:06:59.519Z,56.10
2023-01-25T11:09:30.849Z,56.10
2023-01-25T11:12:03.261Z,56.20
2023-01-25T11:14:32.870Z,56.10
2023-01-25T11:17:01.849Z,56.10
2023-01-25T11:19:31.694Z,56.00
2023-01-25T11:21:59.602Z,56.10
2023-01-25T11:24:28.385Z,56.10
2023-01-25T11:27:13.632Z,56.10
2023-01-25T11:29:40.427Z,56.10
2023-01-25T11:32:21.523Z,56.00
2023-01-25T11:34:50.298Z,56.10
2023-01-25T11:37:33.627Z,56.00
2023-01-25T11:40:15.915Z,56.10
2023-01-25T11:43:03.245Z,56.00
2023-01-25T11:46:07.882Z,56.10
2023-01-25T11:49:07.432Z,56.00
2023-01-25T11:51:44.955Z,56.10
2023-01-25T11:54:40.491Z,56.00
2023-01-25T11:57:40.133Z,56.00
2023-01-25T12:00:46.961Z,56.10
2023-01-25T12:03:42.243Z,56.00
2023-01-25T12:06:33.613Z,56.10
2023-01-25T12:09:38.363Z,56.10
2023-01-25T12:12:04.931Z,56.10
2023-01-25T12:14:58.576Z,56.10
2023-01-25T12:17:48.698Z,56.10
2023-01-25T12:20:33.095Z,56.10
2023-01-25T12:23:12.762Z,56.00
2023-01-25T12:26:05.181Z,56.10
2023-01-25T12:28:43.117Z,56.10
2023-01-25T12:31:14.378Z,56.10
2023-01-25T12:33:47.042Z,56.10
2023-01-25T12:36:16.465Z,56.00
2023-01-25T12:38:58.845Z,56.10
2023-01-25T12:41:32.258Z,56.10
2023-01-25T12:44:19.583Z,56.10
2023-01-25T12:46:58.072Z,56.10
2023-01-25T12:49:38.233Z,56.10
2023-01-25T12:52:21.377Z,56.00
2023-01-25T12:54:48.886Z,56.10
2023-01-25T12:57:27.421Z,56.00
2023-01-25T12:59:57.101Z,56.00
2023-01-25T13:02:50.735Z,56.10
2023-01-25T13:05:40.279Z,55.90
2023-01-25T13:08:33.218Z,56.00
2023-01-25T13:11:16.368Z,56.10
2023-01-25T13:13:43.077Z,56.00
2023-01-25T13:16:37.361Z,56.00
2023-01-25T13:19:04.399Z,56.00
2023-01-25T13:21:37.158Z,56.00
2023-01-25T13:24:17.845Z,56.00
2023-01-25T13:26:48.468Z,56.00
2023-01-25T13:29:46.849Z,56.00
2023-01-25T13:32:35.035Z,56.00
2023-01-25T13:35:02.456Z,56.00
2023-01-25T13:37:33.731Z,56.00
2023-01-25T13:40:33.759Z,56.00
2023-01-25T13:43:17.529Z,56.00
2023-01-25T13:45:46.378Z,56.00
2023-01-25T13:48:23.436Z,56.00
2023-01-25T13:51:03.476Z,56.00
2023-01-25T13:53:33.225Z,55.90
2023-01-25T13:56:00.101Z,55.90
2023-01-25T13:58:29.314Z,55.90
2023-01-25T14:01:08.027Z,55.90
2023-01-25T14:03:41.674Z,55.90
2023-01-25T14:06:19.984Z,55.90
2023-01-25T14:08:47.452Z,55.40
2023-01-25T14:11:31.286Z,55.90
2023-01-25T14:14:18.400Z,55.90
2023-01-25T14:16:45.590Z,55.80
2023-01-25T14:19:29.650Z,55.80
2023-01-25T14:22:20.464Z,55.80
2023-01-25T14:25:01.602Z,55.90
2023-01-25T14:27:28.421Z,55.90
2023-01-25T14:29:55.223Z,56.00
2023-01-25T14:32:24.327Z,56.00
2023-01-25T14:34:51.007Z,56.00
2023-01-25T14:37:22.151Z,56.00
2023-01-25T14:39:51.007Z,56.00
2023-01-25T14:42:18.345Z,56.10
2023-01-25T14:44:45.666Z,56.10
2023-01-25T14:47:31.375Z,56.10
2023-01-25T14:50:35.374Z,56.10
2023-01-25T14:53:16.809Z,56.10
2023-01-25T14:55:46.898Z,56.20
2023-01-25T14:58:29.030Z,56.80
2023-01-25T15:00:58.532Z,56.10
2023-01-25T15:03:26.720Z,56.10
2023-01-25T15:05:54.321Z,56.20
2023-01-25T15:08:38.419Z,56.20
2023-01-25T15:11:24.393Z,56.20
2023-01-25T15:14:02.258Z,56.20
2023-01-25T15:16:38.153Z,56.10
2023-01-25T15:19:20.367Z,56.10
2023-01-25T15:21:48.276Z,56.10
2023-01-25T15:24:15.109Z,56.00
2023-01-25T15:26:41.717Z,55.90
2023-01-25T15:29:14.791Z,55.90
2023-01-25T15:31:43.124Z,55.90
2023-01-25T15:34:16.207Z,55.90
2023-01-25T15:36:42.928Z,55.40
2023-01-25T15:39:14.606Z,56.00
2023-01-25T15:41:42.000Z,56.00
2023-01-25T15:44:09.088Z,56.00
2023-01-25T15:46:37.930Z,55.90
2023-01-25T15:49:06.488Z,55.50
2023-01-25T15:51:35.685Z,56.00
2023-01-25T15:54:02.700Z,56.20
2023-01-25T15:56:32.407Z,56.30
2023-01-25T15:59:01.268Z,56.00
2023-01-25T16:01:30.029Z,56.50
2023-01-25T16:03:58.717Z,56.40
2023-01-25T16:06:31.037Z,56.40
2023-01-25T16:08:59.525Z,56.70
2023-01-25T16:11:26.945Z,56.50
2023-01-25T16:13:53.797Z,56.00
2023-01-25T16:16:25.915Z,56.60
2023-01-25T16:18:52.701Z,56.70
2023-01-25T16:21:19.376Z,56.70
2023-01-25T16:23:46.073Z,56.70
2023-01-25T16:26:20.540Z,57.50
2023-01-25T16:28:47.197Z,56.80
2023-01-25T16:31:30.236Z,56.90
2023-01-25T16:33:58.322Z,57.00
2023-01-25T16:36:25.413Z,57.00
2023-01-25T16:38:52.307Z,57.10
2023-01-25T16:41:18.971Z,57.10
2023-01-25T16:43:47.656Z,57.20
2023-01-25T16:46:16.169Z,57.30
2023-01-25T16:48:43.423Z,57.40
2023-01-25T16:51:24.573Z,57.40
2023-01-25T16:53:52.930Z,57.50
2023-01-25T16:56:24.944Z,57.40
2023-01-25T16:58:53.216Z,57.50
2023-01-25T17:01:21.628Z,57.50
2023-01-25T17:03:48.471Z,57.50
2023-01-25T17:06:17.223Z,56.90
2023-01-25T17:08:43.904Z,56.90
2023-01-25T17:11:10.541Z,56.80
2023-01-25T17:13:37.129Z,56.70
2023-01-25T17:16:03.994Z,56.70
2023-01-25T17:18:30.602Z,56.70
2023-01-25T17:21:01.974Z,56.70
2023-01-25T17:23:30.721Z,56.10
2023-01-25T17:25:57.396Z,56.60
2023-01-25T17:28:24.124Z,56.70
2023-01-25T17:30:54.157Z,56.70
2023-01-25T17:33:21.259Z,56.80
2023-01-25T17:35:47.986Z,56.80
2023-01-25T17:38:14.798Z,56.80
2023-01-25T17:40:41.408Z,56.80
2023-01-25T17:43:08.111Z,56.80
2023-01-25T17:45:38.965Z,56.80
2023-01-25T17:48:08.821Z,56.90
2023-01-25T17:50:36.626Z,56.80
2023-01-25T17:53:04.238Z,56.80
2023-01-25T17:55:30.995Z,56.90
2023-01-25T17:58:00.442Z,56.90
2023-01-25T18:00:27.445Z,57.00
2023-01-25T18:02:54.761Z,57.00
2023-01-25T18:05:21.555Z,56.90
2023-01-25T18:07:48.175Z,57.00
2023-01-25T18:10:15.090Z,57.00
2023-01-25T18:12:42.506Z,57.20
2023-01-25T18:15:10.123Z,57.20
2023-01-25T18:17:38.689Z,57.30
2023-01-25T18:20:06.882Z,57.40
2023-01-25T18:22:33.487Z,56.90
2023-01-25T18:25:00.782Z,57.50
2023-01-25T18:27:28.577Z,57.40
2023-01-25T18:30:00.601Z,57.40
2023-01-25T18:32:29.739Z,57.40
2023-01-25T18:34:56.659Z,57.40
2023-01-25T18:37:29.349Z,57.40
2023-01-25T18:39:56.751Z,57.40
2023-01-25T18:42:25.354Z,57.40
2023-01-25T18:44:52.478Z,57.30
2023-01-25T18:47:21.173Z,57.30
2023-01-25T18:49:49.385Z,57.30
2023-01-25T18:52:18.199Z,57.30
2023-01-25T18:54:45.704Z,57.30
2023-01-25T18:57:13.164Z,57.30
2023-01-25T18:59:40.582Z,57.40
2023-01-25T19:02:10.322Z,57.30
2023-01-25T19:04:37.089Z,57.30
2023-01-25T19:07:04.661Z,57.30
2023-01-25T19:09:31.704Z,57.30
2023-01-25T19:11:58.637Z,57.30
2023-01-25T19:14:25.945Z,57.40
2023-01-25T19:16:52.600Z,57.40
2023-01-25T19:19:20.815Z,57.40
2023-01-25T19:21:47.953Z,57.50
2023-01-25T19:24:18.711Z,57.60
2023-01-25T19:26:47.211Z,57.80
2023-01-25T19:29:14.855Z,57.70
2023-01-25T19:31:41.645Z,57.80
2023-01-25T19:34:08.352Z,57.70
2023-01-25T19:36:37.176Z,57.80
2023-01-25T19:39:05.562Z,57.80
2023-01-25T19:41:33.316Z,57.90
2023-01-25T19:44:02.009Z,57.90
2023-01-25T19:46:31.202Z,58.20
2023-01-25T19:48:59.127Z,58.20
2023-01-25T19:51:37.312Z,58.30
2023-01-25T19:54:05.363Z,58.40
2023-01-25T19:56:37.179Z,59.10
2023-01-25T19:59:05.237Z,58.50
2023-01-25T20:01:32.244Z,58.00
2023-01-25T20:03:59.418Z,58.50
2023-01-25T20:06:26.816Z,58.50
2023-01-25T20:08:53.936Z,58.50
2023-01-25T20:11:23.133Z,58.40
2023-01-25T20:13:51.763Z,58.50
2023-01-25T20:16:18.820Z,58.40
2023-01-25T20:18:47.054Z,58.40
2023-01-25T20:21:15.853Z,58.40
2023-01-25T20:23:44.664Z,58.70
2023-01-25T20:26:15.572Z,58.70
2023-01-25T20:28:44.477Z,58.80
2023-01-25T20:31:20.181Z,58.80
2023-01-25T20:33:47.280Z,58.80
2023-01-25T20:36:13.993Z,58.80
2023-01-25T20:38:40.697Z,58.80
2023-01-25T20:41:10.158Z,58.80
2023-01-25T20:43:36.764Z,58.80
2023-01-25T20:46:03.483Z,58.80
2023-01-25T20:48:36.182Z,58.80
2023-01-25T20:51:12.912Z,58.70
2023-01-25T20:53:41.428Z,59.00
2023-01-25T20:56:09.694Z,59.00
2023-01-25T20:58:36.714Z,59.20
2023-01-25T21:01:04.835Z,59.30
2023-01-25T21:03:31.414Z,58.80
2023-01-25T21:05:59.185Z,59.20
2023-01-25T21:08:26.202Z,59.20
2023-01-25T21:10:57.902Z,59.80
2023-01-25T21:13:26.345Z,58.20
2023-01-25T21:16:02.321Z,58.70
2023-01-25T21:18:40.649Z,58.60
2023-01-25T21:21:12.828Z,58.60
2023-01-25T21:23:41.498Z,58.50
2023-01-25T21:26:12.387Z,58.50
2023-01-25T21:28:39.020Z,58.40
2023-01-25T21:31:11.242Z,58.40
2023-01-25T21:33:38.482Z,58.40
2023-01-25T21:36:08.537Z,58.40
2023-01-25T21:38:36.149Z,58.40
2023-01-25T21:41:04.139Z,58.20
2023-01-25T21:43:50.745Z,58.20
2023-01-25T21:46:25.279Z,58.20
2023-01-25T21:49:11.547Z,58.30
2023-01-25T21:51:45.993Z,58.20
2023-01-25T21:54:14.875Z,58.20
2023-01-25T21:56:41.569Z,58.20
2023-01-25T21:59:08.209Z,58.10
2023-01-25T22:01:34.867Z,58.10
2023-01-25T22:04:01.538Z,58.00
2023-01-25T22:06:28.564Z,58.00
2023-01-25T22:08:55.193Z,58.00
2023-01-25T22:11:22.068Z,58.00
2023-01-25T22:13:48.734Z,58.00
2023-01-25T22:16:15.654Z,57.90
2023-01-25T22:18:43.048Z,57.90
2023-01-25T22:21:19.054Z,57.90
2023-01-25T22:23:46.359Z,57.90
2023-01-25T22:26:16.041Z,57.80
2023-01-25T22:28:51.679Z,57.70
2023-01-25T22:31:26.700Z,57.70
2023-01-25T22:33:55.043Z,57.80
2023-01-25T22:36:26.298Z,57.60
2023-01-25T22:38:53.165Z,57.50
2023-01-25T22:41:25.708Z,57.60
2023-01-25T22:43:53.204Z,57.40
2023-01-25T22:46:22.258Z,57.40
2023-01-25T22:48:49.257Z,57.40
2023-01-25T22:51:23.934Z,57.50
2023-01-25T22:53:51.844Z,57.30
2023-01-25T22:56:20.563Z,57.30
2023-01-25T22:58:48.188Z,57.40
2023-01-25T23:01:18.040Z,57.40
2023-01-25T23:03:45.180Z,56.80
2023-01-25T23:06:15.565Z,57.40
2023-01-25T23:08:43.349Z,57.40
2023-01-25T23:11:18.580Z,57.30
2023-01-25T23:14:05.666Z,57.40
2023-01-25T23:16:32.937Z,57.30
2023-01-25T23:19:00.135Z,57.40
2023-01-25T23:21:28.799Z,57.40
2023-01-25T23:24:00.780Z,57.30
2023-01-25T23:26:29.134Z,57.30
2023-01-25T23:28:57.318Z,57.30
2023-01-25T23:31:25.256Z,57.30
2023-01-25T23:33:57.354Z,57.30
2023-01-25T23:36:26.410Z,57.30
2023-01-25T23:38:53.757Z,57.30
2023-01-25T23:41:22.380Z,57.30
2023-01-25T23:43:50.077Z,56.80
2023-01-25T23:46:17.534Z,57.30
2023-01-25T23:48:45.232Z,57.30
2023-01-25T23:51:13.775Z,57.30
2023-01-25T23:53:41.040Z,57.30
2023-01-25T23:56:13.387Z,57.30
2023-01-25T23:58:40.412Z,57.30
